Latest Weather Observations for Leigh Creek

IDS60801

Issued at 9:02 pm CDT Monday 30 March 2015 (issued every 30 minutes, with the page automatically refreshed every 10 minutes)

About weather observations | Map of weather stations | Latest weather observations for SA | Other Formats
Station Details ID: 017110 Name: LEIGH CREEK AIRPORT Lat: -30.60 Lon: 138.42 Height: 258.8 m
Data from the previous 72 hours. | See also: Recent months at Leigh Creek
Date/Time
CDT
Temp
°C
App
Temp
°C
Dew
Point
Rel
Hum
%
Delta-T
°C
Wind Press
QNH
hPa
Press
MSL
hPa
Rain
since 9 am
mm
Dir
 
Spd
km/h
Gust
km/h
Spd
kts
Gust
kts
30/09:00pm 24.2 21.5 5.5 30 9.6 SE 9 15 5 8 1023.1 1021.9 0.0
30/08:30pm 24.8 22.7 5.6 29 9.9 SE 6 11 3 6 1022.8 1021.6 0.0
30/08:00pm 25.6 21.8 5.8 28 10.3 SSW 15 20 8 11 1022.5 1021.3 0.0
30/07:30pm 26.3 21.5 5.8 27 10.7 SSW 20 26 11 14 1022.3 1021.0 0.0
30/07:00pm 27.2 21.7 6.0 26 11.1 SSW 24 32 13 17 1021.8 1020.5 0.0
30/06:30pm 28.1 22.2 5.6 24 11.8 SSW 26 33 14 18 1021.6 1020.3 0.0
30/06:00pm 28.7 24.0 6.1 24 12.0 SW 20 30 11 16 1021.6 1020.3 0.0
30/05:30pm 29.3 23.4 6.0 23 12.4 SSW 26 33 14 18 1021.4 1020.1 0.0
30/05:00pm 30.2 25.5 6.1 22 12.9 SSW 20 32 11 17 1021.3 1020.0 0.0
30/04:30pm 30.1 26.7 6.1 22 12.8 SSE 13 24 7 13 1021.1 1019.8 0.0
30/04:00pm 28.9 25.1 5.7 23 12.3 SSE 15 28 8 15 1021.4 1020.1 0.0
30/03:30pm 29.3 25.5 6.0 23 12.4 SE 15 26 8 14 1021.5 1020.2 0.0
30/03:00pm 29.8 26.9 6.5 23 12.5 SE 11 20 6 11 1021.8 1020.5 0.0
30/02:30pm 29.1 25.4 6.5 24 12.1 SSE 15 28 8 15 1022.1 1020.8 0.0
30/02:00pm 28.4 25.1 6.5 25 11.7 SSW 13 22 7 12 1022.5 1021.3 0.0
30/01:30pm 28.2 24.9 6.3 25 11.6 SSE 13 24 7 13 1023.0 1021.8 0.0
30/01:00pm 27.5 25.3 6.3 26 11.2 SSE 7 15 4 8 1023.6 1022.4 0.0
30/12:30pm 26.9 24.0 6.3 27 10.8 SSW 11 26 6 14 1024.1 1022.9 0.0
30/12:00pm 26.6 23.7 6.6 28 10.6 SSW 11 22 6 12 1024.5 1023.3 0.0
30/11:30am 25.8 23.2 5.9 28 10.3 S 9 20 5 11 1024.9 1023.6 0.0
30/11:00am 25.6 23.1 6.7 30 10.0 SE 9 15 5 8 1025.3 1024.0 0.0
30/10:30am 24.4 22.5 6.6 32 9.3 E 6 11 3 6 1025.4 1024.1 0.0
30/10:00am 22.7 20.8 6.5 35 8.4 ESE 6 9 3 5 1025.3 1024.0 0.0
30/09:30am 20.9 18.8 6.8 40 7.2 SE 7 11 4 6 1025.2 1023.9 0.0
30/09:00am 19.0 17.1 6.8 45 6.2 ESE 6 9 3 5 1024.9 1023.6 0.2
30/08:30am 15.7 13.7 6.4 54 4.6 SE 6 7 3 4 1024.5 1023.3 0.2
30/08:00am 13.7 11.3 5.3 57 4.0 SE 7 9 4 5 1024.1 1022.9 0.2
30/07:30am 13.1 12.1 5.5 60 3.6 CALM 0 4 0 2 1024.1 1022.9 0.2
30/07:00am 13.1 10.9 5.5 60 3.6 SSE 6 7 3 4 1023.7 1022.5 0.2
30/06:30am 12.7 11.7 5.4 61 3.4 CALM 0 0 0 0 1023.2 1022.0 0.2
30/06:00am 12.9 10.9 4.6 57 3.8 SE 4 7 2 4 1023.1 1021.9 0.2
30/05:30am 12.8 10.5 5.0 59 3.6 SSE 6 7 3 4 1023.1 1021.9 0.2
30/05:00am 13.3 10.9 5.2 58 3.8 SE 7 9 4 5 1022.8 1021.6 0.2
30/04:30am 13.8 11.0 5.2 56 4.1 SE 9 13 5 7 1022.6 1021.4 0.2
30/04:00am 13.4 11.4 4.6 55 4.1 ESE 4 7 2 4 1022.7 1021.5 0.2
30/03:30am 13.4 11.4 4.6 55 4.1 SE 4 9 2 5 1023.0 1021.8 0.2
30/03:00am 13.7 10.8 4.8 55 4.2 SE 9 15 5 8 1023.2 1022.0 0.2
30/02:30am 14.8 11.5 4.8 51 4.7 SE 11 13 6 7 1023.2 1022.0 0.2
30/02:00am 15.3 12.5 5.2 51 4.8 SE 9 11 5 6 1023.6 1022.4 0.2
30/01:30am 15.1 13.2 4.8 50 4.9 ESE 4 7 2 4 1023.9 1022.7 0.2
30/01:00am 17.3 14.5 5.3 45 5.9 SE 9 9 5 5 1024.1 1022.9 0.2
30/12:30am 16.2 15.2 5.5 49 5.2 CALM 0 0 0 0 1024.0 1022.8 0.2
30/12:00am 17.1 14.4 5.7 47 5.6 S 9 9 5 5 1023.8 1022.6 0.2
 
Date/Time
CDT
Temp
°C
App
Temp
°C
Dew
Point
Rel
Hum
%
Delta-T
°C
Wind Press
QNH
hPa
Press
MSL
hPa
Rain
since 9 am
mm
Dir
 
Spd
km/h
Gust
km/h
Spd
kts
Gust
kts
29/11:30pm 17.6 15.3 5.9 46 5.8 SE 7 9 4 5 1023.8 1022.6 0.2
29/11:00pm 18.2 16.0 6.1 45 6.0 E 7 9 4 5 1024.0 1022.8 0.2
29/10:30pm 19.3 16.7 6.1 42 6.6 SE 9 13 5 7 1023.9 1022.7 0.2
29/10:00pm 19.7 16.6 5.4 39 7.1 SSE 11 19 6 10 1023.7 1022.5 0.2
29/09:30pm 19.9 16.7 5.2 38 7.3 SSW 11 13 6 7 1023.4 1022.2 0.2
29/09:00pm 21.0 17.6 5.8 37 7.6 S 13 19 7 10 1023.2 1022.0 0.2
29/08:30pm 22.7 21.5 6.5 35 8.3 SSE 2 7 1 4 1023.1 1021.9 0.2
29/08:00pm 22.8 21.5 6.1 34 8.6 S 2 6 1 3 1022.7 1021.5 0.2
29/07:30pm 23.7 21.1 6.0 32 9.1 S 9 13 5 7 1022.4 1021.2 0.2
29/07:00pm 24.6 21.6 5.9 30 9.7 S 11 15 6 8 1022.0 1020.7 0.2
29/06:30pm 24.8 21.4 6.1 30 9.7 SSW 13 17 7 9 1021.8 1020.5 0.2
29/06:00pm 25.7 23.5 5.3 27 10.5 SSE 6 11 3 6 1021.7 1020.4 0.2
29/05:30pm 26.9 25.4 5.2 25 11.2 SW 2 9 1 5 1021.8 1020.5 0.2
29/05:00pm 26.6 24.3 5.5 26 11.0 WNW 7 11 4 6 1021.8 1020.5 0.2
29/04:30pm 26.4 23.9 4.8 25 11.1 W 7 13 4 7 1021.8 1020.5 0.2
29/04:00pm 25.6 23.1 4.7 26 10.7 NNE 7 11 4 6 1022.1 1020.8 0.2
29/03:30pm 26.0 23.7 5.0 26 10.8 WNW 6 11 3 6 1022.3 1021.0 0.2
29/03:00pm 25.4 22.6 5.1 27 10.4 NNW 9 19 5 10 1022.6 1021.4 0.2
29/02:30pm 24.6 22.0 4.4 27 10.1 NW 7 11 4 6 1022.9 1021.7 0.2
29/02:00pm 24.0 20.4 4.9 29 9.7 ENE 13 22 7 12 1023.2 1022.0 0.2
29/01:30pm 22.9 19.4 7.0 36 8.3 ESE 15 24 8 13 1023.4 1022.2 0.2
29/01:00pm 21.9 18.2 8.1 41 7.3 ESE 17 20 9 11 1023.9 1022.7 0.2
29/12:30pm 20.7 17.3 7.7 43 6.8 ESE 15 19 8 10 1024.4 1023.2 0.2
29/12:00pm 20.7 17.4 8.0 44 6.6 ESE 15 20 8 11 1024.4 1023.2 0.2
29/11:30am 19.7 18.1 10.1 54 5.2 SE 9 15 5 8 1024.8 1023.5 0.2
29/11:00am 19.0 17.3 11.3 61 4.3 SE 11 15 6 8 1024.7 1023.4 0.2
29/10:30am 17.9 17.4 12.6 71 3.0 SE 7 11 4 6 1024.8 1023.5 0.2
29/10:00am 17.7 17.3 13.0 74 2.7 SSE 7 11 4 6 1025.0 1023.7 0.0
29/09:30am 17.0 15.3 12.3 74 2.6 E 13 17 7 9 1024.9 1023.6 0.0
29/09:00am 16.3 14.5 12.1 76 2.3 ENE 13 13 7 7 1024.4 1023.2 1.0
29/08:30am 15.9 15.0 12.5 80 1.9 ESE 9 13 5 7 1023.9 1022.7 1.0
29/08:00am 15.8 14.7 11.8 77 2.2 ESE 9 11 5 6 1023.8 1022.6 0.8
29/07:30am 16.2 14.6 8.9 62 3.8 SE 7 9 4 5 1023.5 1022.3 0.6
29/07:00am 17.2 15.0 7.8 54 4.8 S 9 13 5 7 1022.9 1021.7 0.0
29/06:30am 16.9 15.1 7.8 55 4.6 SW 7 9 4 5 1022.4 1021.2 0.0
29/06:00am 18.0 15.1 2.7 36 7.1 S 7 9 4 5 1021.6 1020.3 0.0
29/05:30am 17.8 15.0 2.9 37 6.9 SSE 7 11 4 6 1020.9 1019.6 0.0
29/05:00am 18.0 14.5 1.5 33 7.5 SE 9 11 5 6 1020.8 1019.5 0.0
29/04:30am 17.8 14.9 1.7 34 7.3 ESE 6 9 3 5 1021.0 1019.7 0.0
29/04:00am 17.6 15.5 1.6 34 7.3 ESE 2 7 1 4 1021.1 1019.8 0.0
29/03:30am 18.0 15.5 1.5 33 7.5 SE 4 9 2 5 1021.4 1020.1 0.0
29/03:00am 18.1 16.3 1.2 32 7.6 CALM 0 0 0 0 1021.5 1020.2 0.0
29/02:30am 18.4 15.5 1.4 32 7.7 S 6 7 3 4 1021.6 1020.3 0.0
29/02:00am 18.5 16.7 1.1 31 7.9 CALM 0 4 0 2 1021.7 1020.4 0.0
29/01:30am 18.6 15.7 1.6 32 7.7 ESE 6 7 3 4 1021.9 1020.6 0.0
29/01:00am 19.0 15.5 1.1 30 8.1 ESE 9 11 5 6 1021.9 1020.6 0.0
29/12:30am 19.7 16.5 0.7 28 8.6 SE 7 9 4 5 1022.2 1020.9 0.0
29/12:00am 20.1 16.9 1.0 28 8.7 S 7 11 4 6 1022.3 1021.0 0.0
 
Date/Time
CDT
Temp
°C
App
Temp
°C
Dew
Point
Rel
Hum
%
Delta-T
°C
Wind Press
QNH
hPa
Press
MSL
hPa
Rain
since 9 am
mm
Dir
 
Spd
km/h
Gust
km/h
Spd
kts
Gust
kts
28/11:30pm 19.6 16.0 0.6 28 8.5 S 9 13 5 7 1022.2 1020.9 0.0
28/11:00pm 19.5 15.6 1.0 29 8.4 S 11 13 6 7 1022.5 1021.3 0.0
28/10:30pm 20.1 15.8 1.0 28 8.7 S 13 15 7 8 1022.4 1021.2 0.0
28/10:00pm 20.6 16.3 1.0 27 9.0 S 13 17 7 9 1022.4 1021.2 0.0
28/09:30pm 21.0 16.0 1.3 27 9.1 SSW 17 24 9 13 1022.1 1020.8 0.0
28/09:00pm 21.4 16.4 1.1 26 9.4 SSW 17 24 9 13 1021.9 1020.6 0.0
28/08:30pm 21.9 16.5 1.5 26 9.5 SSW 19 24 10 13 1021.8 1020.5 0.0
28/08:00pm 22.4 17.0 1.4 25 9.9 SSW 19 22 10 12 1021.3 1020.0 0.0
28/07:30pm 23.0 17.4 1.4 24 10.1 SSW 20 28 11 15 1020.9 1019.6 0.0
28/07:00pm 25.0 20.9 -0.2 19 11.7 WSW 11 15 6 8 1020.5 1019.3 0.0
28/06:30pm 25.9 23.5 -0.2 18 12.2 W 2 7 1 4 1020.3 1019.1 0.0
28/06:00pm 25.8 22.0 -1.1 17 12.3 NW 9 15 5 8 1020.3 1019.1 0.0
28/05:30pm 26.7 24.2 -1.2 16 12.8 E 2 7 1 4 1020.1 1018.9 0.0
28/05:00pm 25.9 22.6 -1.0 17 12.4 SE 6 9 3 5 1020.1 1018.9 0.0
28/04:30pm 26.4 23.2 -0.6 17 12.5 SW 6 13 3 7 1020.3 1019.1 0.0
28/04:00pm 26.6 23.3 -1.3 16 12.9 WSW 6 13 3 7 1020.7 1019.4 0.0
28/03:30pm 27.0 23.9 -0.1 17 12.8 SSW 6 15 3 8 1021.2 1019.9 0.0
28/03:00pm 25.9 22.1 -1.0 17 12.4 W 9 15 5 8 1021.5 1020.2 0.0
28/02:30pm 26.7 24.0 0.4 18 12.5 WSW 4 11 2 6 1021.9 1020.6 0.0
28/02:00pm 25.5 21.9 0.9 20 11.7 ESE 9 13 5 7 1022.5 1021.3 0.0
28/01:30pm 24.4 21.1 0.0 20 11.3 SE 7 11 4 6 1023.1 1021.9 0.0
28/01:00pm 24.4 20.1 1.3 22 11.0 ESE 13 17 7 9 1023.6 1022.4 0.0
28/12:30pm 23.8 19.7 2.0 24 10.4 SSW 13 20 7 11 1024.2 1023.0 0.0
28/12:00pm 23.6 20.8 1.9 24 10.3 WNW 6 15 3 8 1024.7 1023.4 0.0
28/11:30am 23.0 20.1 2.5 26 9.8 E 7 11 4 6 1024.8 1023.5 0.0
28/11:00am 21.8 18.0 2.0 27 9.4 E 11 20 6 11 1024.8 1023.5 0.0
28/10:30am 21.6 16.4 2.3 28 9.1 E 19 24 10 13 1025.0 1023.7 0.0
28/10:00am 20.4 14.8 3.2 32 8.2 E 22 28 12 15 1025.1 1023.8 0.0
28/09:30am 18.8 12.1 3.4 36 7.3 E 28 33 15 18 1024.8 1023.5 0.0
28/09:00am 17.4 11.0 3.3 39 6.6 E 26 33 14 18 1024.9 1023.6 0.0
28/08:30am 15.5 11.2 3.3 44 5.6 ESE 15 22 8 12 1024.5 1023.3 0.0
28/08:00am 14.2 9.9 3.1 47 5.0 ESE 15 19 8 10 1024.1 1022.9 0.0
28/07:30am 12.4 8.3 2.0 49 4.5 ESE 13 17 7 9 1024.0 1022.8 0.0
28/07:00am 11.7 8.0 -0.1 44 4.9 ESE 9 11 5 6 1023.9 1022.7 0.0
28/06:30am 13.0 9.8 1.0 44 5.1 ESE 7 9 4 5 1023.9 1022.7 0.0
28/06:00am 12.7 9.5 0.5 43 5.1 E 7 9 4 5 1024.0 1022.8 0.0
28/05:30am 13.2 8.8 0.6 42 5.4 E 13 15 7 8 1023.8 1022.6 0.0
28/05:00am 11.8 8.0 -0.4 43 5.0 E 9 13 5 7 1023.8 1022.6 0.0
28/04:30am 10.4 8.3 -1.0 45 4.5 CALM 0 0 0 0 1023.8 1022.6 0.0
28/04:00am 11.0 7.7 -1.1 43 4.9 ESE 6 11 3 6 1023.9 1022.7 0.0
28/03:30am 11.5 8.7 -0.6 43 4.9 SE 4 11 2 6 1023.8 1022.6 0.0
28/03:00am 11.5 9.5 0.0 45 4.7 CALM 0 0 0 0 1024.2 1023.0 0.0
28/02:30am 12.4 9.0 -0.8 40 5.4 SSE 7 9 4 5 1024.4 1023.2 0.0
28/02:00am 12.4 10.2 -1.5 38 5.6 CALM 0 0 0 0 1024.4 1023.2 0.0
28/01:30am 14.1 12.2 0.7 40 5.7 CALM 0 0 0 0 1024.4 1023.2 0.0
28/01:00am 13.6 11.6 -0.1 39 5.8 CALM 0 0 0 0 1024.5 1023.3 0.0
28/12:30am 14.5 11.1 -0.8 35 6.4 ESE 7 9 4 5 1024.4 1023.2 0.0
28/12:00am 15.7 13.8 0.3 35 6.6 CALM 0 0 0 0 1025.1 1023.8 0.0
 
Date/Time
CDT
Temp
°C
App
Temp
°C
Dew
Point
Rel
Hum
%
Delta-T
°C
Wind Press
QNH
hPa
Press
MSL
hPa
Rain
since 9 am
mm
Dir
 
Spd
km/h
Gust
km/h
Spd
kts
Gust
kts
27/11:30pm 15.7 13.4 0.3 35 6.6 ESE 2 7 1 4 1025.2 1023.9 0.0
27/11:00pm 16.8 12.8 0.5 33 7.2 ESE 11 13 6 7 1025.1 1023.8 0.0
27/10:30pm 18.0 14.0 0.6 31 7.7 SE 11 19 6 10 1025.0 1023.7 0.0
27/10:00pm 18.1 15.1 0.7 31 7.8 SE 6 11 3 6 1024.9 1023.6 0.0
27/09:30pm 18.2 14.6 0.8 31 7.8 SSW 9 13 5 7 1024.8 1023.5 0.0

Other Formats:

Comma delimited format used in spreadsheet applications
http://www.bom.gov.au/fwo/IDS60801/IDS60801.94674.axf

JavaScript Object Notation format (JSON) in row-major order
http://www.bom.gov.au/fwo/IDS60801/IDS60801.94674.json